createdAt,value
2017-08-23T00:00:11.053Z,99.90
2017-08-23T00:02:39.382Z,99.90
2017-08-23T00:05:09.665Z,99.90
2017-08-23T00:07:37.927Z,99.90
2017-08-23T00:10:06.225Z,99.90
2017-08-23T00:12:34.544Z,99.90
2017-08-23T00:15:03.365Z,99.90
2017-08-23T00:17:32.065Z,99.90
2017-08-23T00:20:01.412Z,99.90
2017-08-23T00:22:29.729Z,99.90
2017-08-23T00:24:58.037Z,99.90
2017-08-23T00:27:26.395Z,99.90
2017-08-23T00:29:54.972Z,99.90
2017-08-23T00:32:23.265Z,99.90
2017-08-23T00:34:51.598Z,99.90
2017-08-23T00:37:19.879Z,99.90
2017-08-23T00:39:48.163Z,99.90
2017-08-23T00:42:16.829Z,99.90
2017-08-23T00:44:45.162Z,99.90
2017-08-23T00:47:14.392Z,99.90
2017-08-23T00:49:42.684Z,99.90
2017-08-23T00:52:11.762Z,99.90
2017-08-23T00:54:40.357Z,99.90
2017-08-23T00:57:08.691Z,99.90
2017-08-23T00:59:36.998Z,99.90
2017-08-23T01:02:06.015Z,99.90
2017-08-23T01:04:34.362Z,99.90
2017-08-23T01:07:03.892Z,99.90
2017-08-23T01:09:33.589Z,99.90
2017-08-23T01:12:01.925Z,99.90
2017-08-23T01:14:30.290Z,99.90
2017-08-23T01:16:58.911Z,99.90
2017-08-23T01:19:28.298Z,99.90
2017-08-23T01:21:56.610Z,99.90
2017-08-23T01:24:25.080Z,99.90
2017-08-23T01:26:53.392Z,99.90
2017-08-23T01:29:21.678Z,99.90
2017-08-23T01:31:50.315Z,99.90
2017-08-23T01:34:18.635Z,99.90
2017-08-23T01:36:46.962Z,99.90
2017-08-23T01:39:15.260Z,99.90
2017-08-23T01:41:43.571Z,99.90
2017-08-23T01:44:12.195Z,99.90
2017-08-23T01:46:40.786Z,99.90
2017-08-23T01:49:09.056Z,99.90
2017-08-23T01:51:37.417Z,99.90
2017-08-23T01:54:06.418Z,99.90
2017-08-23T01:56:35.311Z,99.90
2017-08-23T01:59:03.641Z,99.90
2017-08-23T02:01:33.082Z,99.90
2017-08-23T02:04:02.163Z,99.90
2017-08-23T02:06:30.450Z,99.90
2017-08-23T02:09:06.414Z,99.90
2017-08-23T02:11:40.915Z,99.90
2017-08-23T02:14:09.223Z,99.90
2017-08-23T02:16:37.517Z,99.90
2017-08-23T02:19:05.870Z,99.90
2017-08-23T02:21:35.539Z,99.90
2017-08-23T02:24:03.927Z,99.90
2017-08-23T02:26:32.230Z,99.90
2017-08-23T02:29:00.508Z,99.90
2017-08-23T02:31:29.216Z,99.90
2017-08-23T02:33:57.484Z,99.90
2017-08-23T02:36:25.773Z,99.90
2017-08-23T02:38:54.395Z,99.90
2017-08-23T02:41:23.195Z,99.90
2017-08-23T02:43:51.564Z,99.90
2017-08-23T02:46:20.610Z,99.90
2017-08-23T02:48:49.356Z,99.90
2017-08-23T02:51:18.019Z,99.90
2017-08-23T02:53:46.325Z,99.90
2017-08-23T02:56:14.599Z,99.90
2017-08-23T02:58:43.044Z,99.90
2017-08-23T03:01:12.146Z,99.90
2017-08-23T03:03:41.162Z,99.90
2017-08-23T03:06:09.439Z,99.90
2017-08-23T03:08:38.417Z,99.90
2017-08-23T03:11:06.712Z,99.90
2017-08-23T03:13:35.728Z,99.90
2017-08-23T03:16:04.638Z,99.90
2017-08-23T03:18:33.803Z,99.90
2017-08-23T03:21:02.571Z,99.90
2017-08-23T03:23:30.880Z,99.90
2017-08-23T03:25:59.152Z,99.90
2017-08-23T03:28:27.765Z,99.90
2017-08-23T03:30:56.174Z,99.90
2017-08-23T03:33:24.478Z,99.90
2017-08-23T03:35:52.814Z,99.90
2017-08-23T03:38:21.071Z,99.90
2017-08-23T03:40:49.690Z,99.90
2017-08-23T03:43:17.979Z,99.90
2017-08-23T03:48:23.746Z,99.90
2017-08-23T03:50:52.123Z,99.90
2017-08-23T03:53:20.720Z,99.90
2017-08-23T03:55:49.850Z,99.90
2017-08-23T03:58:18.133Z,99.90
2017-08-23T04:00:46.708Z,99.90
2017-08-23T04:03:15.064Z,99.90
2017-08-23T04:05:43.361Z,99.90
2017-08-23T04:08:11.928Z,99.90
2017-08-23T04:10:40.949Z,99.90
2017-08-23T04:13:09.984Z,99.90
2017-08-23T04:15:38.818Z,99.90
2017-08-23T04:18:07.515Z,99.90
2017-08-23T04:20:35.795Z,99.90
2017-08-23T04:23:04.097Z,99.90
2017-08-23T04:25:32.379Z,99.90
2017-08-23T04:28:01.089Z,99.90
2017-08-23T04:30:29.352Z,99.90
2017-08-23T04:32:57.620Z,99.90
2017-08-23T04:35:25.970Z,99.90
2017-08-23T04:37:54.297Z,99.90
2017-08-23T04:40:22.970Z,99.90
2017-08-23T04:42:52.203Z,99.90
2017-08-23T04:45:20.492Z,99.90
2017-08-23T04:47:48.774Z,99.90
2017-08-23T04:50:17.888Z,99.90
2017-08-23T04:52:46.464Z,99.90
2017-08-23T04:55:15.379Z,99.90
2017-08-23T04:57:43.740Z,99.90
2017-08-23T05:00:12.067Z,99.90
2017-08-23T05:02:40.375Z,99.90
2017-08-23T05:05:08.946Z,99.90
2017-08-23T05:07:38.053Z,99.90
2017-08-23T05:10:06.379Z,99.90
2017-08-23T05:12:34.630Z,99.90
2017-08-23T05:15:03.416Z,99.90
2017-08-23T05:17:31.985Z,99.90
2017-08-23T05:20:00.397Z,99.90
2017-08-23T05:22:28.698Z,99.90
2017-08-23T05:24:57.378Z,99.90
2017-08-23T05:27:25.657Z,99.90
2017-08-23T05:29:53.947Z,99.90
2017-08-23T05:32:22.905Z,99.90
2017-08-23T05:34:51.297Z,99.90
2017-08-23T05:37:19.572Z,99.90
2017-08-23T05:39:48.588Z,99.90
2017-08-23T05:42:16.870Z,99.90
2017-08-23T05:44:45.194Z,99.90
2017-08-23T05:47:14.577Z,99.90
2017-08-23T05:49:42.868Z,99.90
2017-08-23T05:52:11.206Z,99.90
2017-08-23T05:54:39.809Z,99.90
2017-08-23T05:57:09.572Z,99.90
2017-08-23T05:59:38.099Z,99.90
2017-08-23T06:02:07.507Z,99.90
2017-08-23T06:04:35.818Z,99.90
2017-08-23T06:07:05.438Z,99.90
2017-08-23T06:09:34.092Z,99.90
2017-08-23T06:12:02.415Z,99.90
2017-08-23T06:14:31.283Z,99.90
2017-08-23T06:17:00.257Z,99.90
2017-08-23T06:19:28.535Z,99.90
2017-08-23T06:21:56.867Z,99.90
2017-08-23T06:24:26.208Z,99.90
2017-08-23T06:26:54.545Z,99.90
2017-08-23T06:29:22.814Z,99.90
2017-08-23T06:31:51.428Z,99.90
2017-08-23T06:34:19.771Z,99.90
2017-08-23T06:36:48.462Z,99.90
2017-08-23T06:39:16.831Z,99.90
2017-08-23T06:41:45.161Z,99.90
2017-08-23T06:44:13.759Z,99.90
2017-08-23T06:46:42.029Z,99.90
2017-08-23T06:49:10.330Z,99.90
2017-08-23T06:51:39.745Z,99.90
2017-08-23T06:54:08.054Z,99.90
2017-08-23T06:56:36.641Z,99.90
2017-08-23T06:59:04.954Z,99.90
2017-08-23T07:01:33.226Z,99.90
2017-08-23T07:04:01.607Z,99.90
2017-08-23T07:06:30.570Z,99.90
2017-08-23T07:09:01.189Z,99.60
2017-08-23T07:11:30.122Z,99.50
2017-08-23T07:13:58.444Z,99.30
2017-08-23T07:16:27.094Z,99.10
2017-08-23T07:18:55.406Z,98.90
2017-08-23T07:21:24.324Z,98.60
2017-08-23T07:23:52.651Z,98.10
2017-08-23T07:26:20.951Z,97.80
2017-08-23T07:28:49.610Z,98.20
2017-08-23T07:31:17.906Z,97.90
2017-08-23T07:33:46.316Z,98.20
2017-08-23T07:36:14.992Z,97.50
2017-08-23T07:38:43.277Z,97.60
2017-08-23T07:41:12.051Z,97.80
2017-08-23T07:43:40.353Z,98.00
2017-08-23T07:46:08.660Z,97.50
2017-08-23T07:48:37.260Z,97.50
2017-08-23T07:51:05.544Z,97.80
2017-08-23T07:53:34.496Z,98.10
2017-08-23T07:56:02.830Z,97.60
2017-08-23T07:58:31.192Z,98.00
2017-08-23T08:00:59.859Z,98.20
2017-08-23T08:03:28.575Z,98.50
2017-08-23T08:05:56.883Z,99.20
2017-08-23T08:08:25.327Z,98.90
2017-08-23T08:10:54.100Z,99.40
2017-08-23T08:13:22.680Z,99.00
2017-08-23T08:15:51.075Z,99.90
2017-08-23T08:18:19.349Z,99.10
2017-08-23T08:20:47.962Z,97.50
2017-08-23T08:23:16.262Z,98.30
2017-08-23T08:25:44.550Z,99.00
2017-08-23T08:28:13.150Z,98.80
2017-08-23T08:30:42.051Z,98.20
2017-08-23T08:33:10.880Z,97.00
2017-08-23T08:35:40.672Z,96.20
2017-08-23T08:38:09.013Z,96.50
2017-08-23T08:40:37.373Z,95.60
2017-08-23T08:43:05.696Z,96.10
2017-08-23T08:45:34.340Z,95.50
2017-08-23T08:48:02.703Z,95.10
2017-08-23T08:50:31.034Z,94.00
2017-08-23T08:52:59.372Z,94.20
2017-08-23T08:55:27.656Z,94.70
2017-08-23T08:57:56.206Z,93.00
2017-08-23T09:00:24.547Z,92.00
2017-08-23T09:02:52.857Z,91.30
2017-08-23T09:05:21.188Z,91.60
2017-08-23T09:07:49.502Z,91.70
2017-08-23T09:10:18.069Z,91.10
2017-08-23T09:12:46.428Z,89.40
2017-08-23T09:15:14.748Z,86.70
2017-08-23T09:17:43.356Z,88.60
2017-08-23T09:20:11.650Z,88.10
2017-08-23T09:22:40.302Z,87.40
2017-08-23T09:25:08.584Z,87.50
2017-08-23T09:27:36.885Z,84.60
2017-08-23T09:30:05.961Z,83.70
2017-08-23T09:32:34.248Z,83.40
2017-08-23T09:35:02.820Z,83.70
2017-08-23T09:37:31.125Z,84.70
2017-08-23T09:40:00.495Z,85.60
2017-08-23T09:42:30.593Z,85.90
2017-08-23T09:45:00.809Z,82.60
2017-08-23T09:47:29.804Z,82.60
2017-08-23T09:49:58.130Z,82.10
2017-08-23T09:52:26.443Z,81.30
2017-08-23T09:54:54.825Z,77.90
2017-08-23T09:57:23.112Z,76.50
2017-08-23T09:59:51.798Z,75.30
2017-08-23T10:02:21.346Z,75.50
2017-08-23T10:07:19.930Z,99.50
2017-08-23T10:09:48.628Z,93.80
2017-08-23T10:12:17.282Z,92.20
2017-08-23T10:14:46.348Z,91.50
2017-08-23T10:17:14.657Z,67.80
2017-08-23T10:19:42.962Z,66.10
2017-08-23T10:22:11.627Z,65.20
2017-08-23T10:24:40.580Z,66.50
2017-08-23T10:27:08.867Z,77.80
2017-08-23T10:29:37.191Z,75.50
2017-08-23T10:32:05.788Z,65.30
2017-08-23T10:34:34.080Z,63.60
2017-08-23T10:37:02.393Z,61.30
2017-08-23T10:39:31.814Z,59.90
2017-08-23T10:42:00.841Z,56.10
2017-08-23T10:44:29.415Z,56.00
2017-08-23T10:46:57.751Z,56.20
2017-08-23T10:49:26.060Z,56.50
2017-08-23T10:51:54.494Z,57.10
2017-08-23T10:54:22.844Z,58.50
2017-08-23T10:56:51.424Z,59.40
2017-08-23T10:59:19.707Z,56.80
2017-08-23T11:01:47.996Z,55.40
2017-08-23T11:04:16.289Z,53.70
2017-08-23T11:06:44.623Z,51.50
2017-08-23T11:09:13.286Z,50.10
2017-08-23T11:11:41.627Z,49.00
2017-08-23T11:14:09.941Z,48.80
2017-08-23T11:16:38.276Z,74.20
2017-08-23T11:19:06.877Z,44.40
2017-08-23T11:21:36.607Z,53.50
2017-08-23T11:24:06.042Z,35.40
2017-08-23T11:26:35.179Z,35.80
2017-08-23T11:29:03.469Z,33.00
2017-08-23T11:31:31.757Z,30.80
2017-08-23T11:34:01.233Z,30.00
2017-08-23T11:36:29.615Z,31.50
2017-08-23T11:38:57.908Z,32.20
2017-08-23T11:41:27.106Z,31.20
2017-08-23T11:43:55.464Z,31.20
2017-08-23T11:46:24.007Z,31.40
2017-08-23T11:48:53.431Z,34.60
2017-08-23T11:51:21.739Z,35.10
2017-08-23T11:53:50.129Z,37.10
2017-08-23T11:56:18.546Z,38.30
2017-08-23T11:58:47.205Z,39.50
2017-08-23T12:01:15.887Z,42.00
2017-08-23T12:03:44.164Z,43.30
2017-08-23T12:06:12.764Z,41.20
2017-08-23T12:08:41.027Z,37.80
2017-08-23T12:11:10.036Z,36.40
2017-08-23T12:13:38.695Z,38.10
2017-08-23T12:16:07.844Z,68.50
2017-08-23T12:18:36.170Z,67.60
2017-08-23T12:21:04.491Z,39.30
2017-08-23T12:23:32.772Z,37.00
2017-08-23T12:26:01.394Z,34.40
2017-08-23T12:28:29.698Z,54.60
2017-08-23T12:30:59.396Z,27.50
2017-08-23T12:33:29.176Z,26.60
2017-08-23T12:35:58.647Z,24.80
2017-08-23T12:38:28.360Z,25.10
2017-08-23T12:40:57.706Z,24.40
2017-08-23T12:43:26.036Z,24.20
2017-08-23T12:45:54.666Z,23.10
2017-08-23T12:48:23.080Z,23.60
2017-08-23T12:50:52.782Z,24.30
2017-08-23T12:53:22.307Z,22.80
2017-08-23T12:55:50.678Z,23.20
2017-08-23T12:58:19.907Z,22.70
2017-08-23T13:00:48.229Z,22.50
2017-08-23T13:03:16.546Z,22.60
2017-08-23T13:05:46.036Z,22.30
2017-08-23T13:08:14.431Z,22.50
2017-08-23T13:10:42.742Z,22.00
2017-08-23T13:13:11.391Z,21.30
2017-08-23T13:15:40.849Z,21.30
2017-08-23T13:18:09.148Z,21.70
2017-08-23T13:20:38.511Z,23.50
2017-08-23T13:23:08.332Z,42.50
2017-08-23T13:25:37.718Z,40.20
2017-08-23T13:28:06.009Z,32.20
2017-08-23T13:30:34.324Z,32.10
2017-08-23T13:33:04.618Z,34.40
2017-08-23T13:35:32.964Z,34.90
2017-08-23T13:38:02.666Z,33.30
2017-08-23T13:43:00.629Z,28.50
2017-08-23T13:45:29.243Z,26.80
2017-08-23T13:47:57.530Z,26.00
2017-08-23T13:50:26.139Z,25.00
2017-08-23T13:57:54.008Z,52.40
2017-08-23T14:02:51.913Z,19.30
2017-08-23T14:05:20.350Z,20.50
2017-08-23T14:07:48.838Z,38.90
2017-08-23T14:10:17.441Z,22.60
2017-08-23T14:12:47.583Z,22.90
2017-08-23T14:15:16.619Z,22.90
2017-08-23T14:17:44.960Z,22.60
2017-08-23T14:20:13.259Z,21.50
2017-08-23T14:22:42.218Z,20.80
2017-08-23T14:25:10.536Z,20.30
2017-08-23T14:27:38.847Z,20.40
2017-08-23T14:32:36.763Z,19.40
2017-08-23T14:35:06.181Z,20.20
2017-08-23T14:37:34.715Z,20.70
2017-08-23T14:40:04.680Z,20.80
2017-08-23T14:42:33.061Z,20.70
2017-08-23T14:45:02.613Z,20.50
2017-08-23T14:47:31.261Z,21.00
2017-08-23T14:49:59.651Z,21.10
2017-08-23T14:52:27.935Z,21.50
2017-08-23T14:54:56.319Z,21.40
2017-08-23T14:57:25.115Z,21.30
2017-08-23T14:59:53.821Z,22.00
2017-08-23T15:02:22.930Z,21.20
2017-08-23T15:04:51.686Z,21.70
2017-08-23T15:07:20.801Z,21.10
2017-08-23T15:09:50.542Z,21.00
2017-08-23T15:12:19.817Z,20.80
2017-08-23T15:14:48.586Z,21.20
2017-08-23T15:17:16.924Z,20.50
2017-08-23T15:19:45.292Z,20.80
2017-08-23T15:22:13.630Z,21.10
2017-08-23T15:24:42.236Z,20.60
2017-08-23T15:27:13.480Z,21.30
2017-08-23T15:29:42.609Z,21.70
2017-08-23T15:32:11.595Z,21.90
2017-08-23T15:34:40.296Z,22.40
2017-08-23T15:37:08.587Z,22.50
2017-08-23T15:39:37.203Z,22.60
2017-08-23T15:42:05.818Z,22.40
2017-08-23T15:44:34.117Z,22.50
2017-08-23T15:47:03.320Z,22.70
2017-08-23T15:49:33.517Z,22.20
2017-08-23T15:52:02.188Z,22.60
2017-08-23T15:54:33.628Z,22.40
2017-08-23T15:57:01.935Z,22.40
2017-08-23T15:59:30.240Z,23.40
2017-08-23T16:01:58.533Z,24.20
2017-08-23T16:04:27.537Z,25.30
2017-08-23T16:06:56.233Z,26.50
2017-08-23T16:09:24.515Z,27.80
2017-08-23T16:11:53.981Z,29.90
2017-08-23T16:14:23.129Z,30.10
2017-08-23T16:16:52.455Z,32.60
2017-08-23T16:19:24.802Z,38.10
2017-08-23T16:21:53.076Z,36.10
2017-08-23T16:24:23.182Z,38.70
2017-08-23T16:26:51.806Z,47.30
2017-08-23T16:29:20.104Z,52.80
2017-08-23T16:31:49.557Z,52.60
2017-08-23T16:34:18.584Z,42.30
2017-08-23T16:36:47.384Z,42.90
2017-08-23T16:39:15.662Z,42.80
2017-08-23T16:41:45.001Z,43.40
2017-08-23T16:44:13.645Z,44.80
2017-08-23T16:46:43.556Z,44.80
2017-08-23T16:49:12.754Z,45.70
2017-08-23T16:51:41.610Z,45.90
2017-08-23T16:54:09.925Z,46.20
2017-08-23T16:56:38.498Z,46.80
2017-08-23T16:59:07.748Z,47.70
2017-08-23T17:01:36.026Z,48.20
2017-08-23T17:04:04.320Z,48.40
2017-08-23T17:06:32.597Z,48.90
2017-08-23T17:09:01.188Z,49.10
2017-08-23T17:11:29.476Z,50.00
2017-08-23T17:13:58.519Z,50.80
2017-08-23T17:16:28.799Z,50.80
2017-08-23T17:18:58.883Z,52.20
2017-08-23T17:21:28.280Z,52.60
2017-08-23T17:23:56.860Z,53.00
2017-08-23T17:26:26.706Z,52.80
2017-08-23T17:28:55.280Z,53.30
2017-08-23T17:31:23.575Z,53.60
2017-08-23T17:33:51.847Z,53.90
2017-08-23T17:36:20.169Z,54.00
2017-08-23T17:38:49.298Z,73.40
2017-08-23T17:41:17.962Z,72.30
2017-08-23T17:43:47.395Z,69.90
2017-08-23T17:46:15.678Z,62.50
2017-08-23T17:48:44.593Z,55.30
2017-08-23T17:51:13.258Z,55.70
2017-08-23T17:53:41.889Z,56.20
2017-08-23T17:56:10.471Z,56.90
2017-08-23T17:58:38.764Z,57.50
2017-08-23T18:01:07.047Z,58.40
2017-08-23T18:03:35.417Z,58.80
2017-08-23T18:06:04.027Z,59.60
2017-08-23T18:08:32.298Z,60.60
2017-08-23T18:11:00.587Z,61.30
2017-08-23T18:13:29.263Z,63.30
2017-08-23T18:15:57.545Z,63.70
2017-08-23T18:18:25.918Z,65.10
2017-08-23T18:20:54.521Z,66.00
2017-08-23T18:23:22.880Z,66.30
2017-08-23T18:25:51.449Z,67.30
2017-08-23T18:28:21.109Z,68.30
2017-08-23T18:30:49.389Z,67.90
2017-08-23T18:33:17.849Z,69.40
2017-08-23T18:35:46.123Z,70.00
2017-08-23T18:38:16.268Z,71.00
2017-08-23T18:40:44.544Z,72.80
2017-08-23T18:43:12.955Z,73.10
2017-08-23T18:45:41.257Z,74.90
2017-08-23T18:48:09.633Z,75.20
2017-08-23T18:50:38.755Z,75.80
2017-08-23T18:53:07.889Z,76.60
2017-08-23T18:55:36.191Z,78.10
2017-08-23T18:58:04.570Z,78.50
2017-08-23T19:00:32.864Z,79.20
2017-08-23T19:03:01.538Z,80.20
2017-08-23T19:05:29.844Z,82.10
2017-08-23T19:07:58.217Z,82.50
2017-08-23T19:10:26.489Z,83.30
2017-08-23T19:12:56.011Z,84.50
2017-08-23T19:15:24.870Z,86.60
2017-08-23T19:17:53.964Z,87.40
2017-08-23T19:20:22.545Z,88.10
2017-08-23T19:22:50.839Z,89.30
2017-08-23T19:25:19.131Z,90.30
2017-08-23T19:27:48.553Z,91.10
2017-08-23T19:30:17.653Z,91.80
2017-08-23T19:32:45.940Z,92.50
2017-08-23T19:35:14.625Z,92.70
2017-08-23T19:37:42.901Z,93.10
2017-08-23T19:40:11.560Z,93.80
2017-08-23T19:42:40.235Z,94.30
2017-08-23T19:45:09.920Z,94.90
2017-08-23T19:47:38.611Z,95.20
2017-08-23T19:50:07.554Z,95.50
2017-08-23T19:52:35.836Z,95.40
2017-08-23T19:55:04.241Z,95.60
2017-08-23T19:57:32.531Z,95.80
2017-08-23T20:00:01.100Z,96.10
2017-08-23T20:02:29.391Z,96.60
2017-08-23T20:04:57.672Z,97.00
2017-08-23T20:07:25.996Z,97.70
2017-08-23T20:09:54.301Z,98.10
2017-08-23T20:12:22.957Z,98.20
2017-08-23T20:14:51.308Z,98.80
2017-08-23T20:17:20.096Z,98.50
2017-08-23T20:19:48.396Z,99.30
2017-08-23T20:22:16.673Z,99.80
2017-08-23T20:24:45.639Z,99.90
2017-08-23T20:27:14.739Z,99.90
2017-08-23T20:29:43.521Z,99.90
2017-08-23T20:32:12.204Z,99.90
2017-08-23T20:34:40.472Z,99.90
2017-08-23T20:37:09.861Z,99.90
2017-08-23T20:39:38.243Z,99.90
2017-08-23T20:42:07.573Z,99.90
2017-08-23T20:44:35.875Z,99.90
2017-08-23T20:47:04.911Z,99.90
2017-08-23T20:49:33.544Z,99.90
2017-08-23T20:52:01.870Z,99.90
2017-08-23T20:54:30.794Z,99.90
2017-08-23T20:56:59.143Z,99.90
2017-08-23T20:59:27.424Z,99.90
2017-08-23T21:01:56.487Z,99.90
2017-08-23T21:04:24.777Z,99.90
2017-08-23T21:06:53.812Z,99.90
2017-08-23T21:09:22.147Z,99.90
2017-08-23T21:11:50.427Z,99.90
2017-08-23T21:14:19.827Z,99.90
2017-08-23T21:16:48.197Z,99.90
2017-08-23T21:19:17.436Z,99.90
2017-08-23T21:21:45.698Z,99.90
2017-08-23T21:24:13.997Z,99.90
2017-08-23T21:26:42.677Z,99.90
2017-08-23T21:29:10.982Z,99.90
2017-08-23T21:31:39.285Z,99.90
2017-08-23T21:34:07.694Z,99.90
2017-08-23T21:36:36.012Z,99.90
2017-08-23T21:39:04.573Z,99.90
2017-08-23T21:41:33.604Z,99.90
2017-08-23T21:44:01.911Z,99.90
2017-08-23T21:46:30.697Z,99.90
2017-08-23T21:48:59.013Z,99.90
2017-08-23T21:51:27.597Z,99.90
2017-08-23T21:53:56.536Z,99.90
2017-08-23T21:56:25.476Z,99.90
2017-08-23T21:58:54.496Z,99.90
2017-08-23T22:01:22.849Z,99.90
2017-08-23T22:03:51.408Z,99.90
2017-08-23T22:06:19.693Z,99.90
2017-08-23T22:08:47.996Z,99.90
2017-08-23T22:11:16.430Z,99.90
2017-08-23T22:13:44.742Z,99.90
2017-08-23T22:16:14.405Z,99.90
2017-08-23T22:18:42.772Z,99.90
2017-08-23T22:21:12.024Z,99.90
2017-08-23T22:23:40.602Z,99.90
2017-08-23T22:26:09.963Z,99.90
2017-08-23T22:28:38.367Z,99.90
2017-08-23T22:31:08.088Z,99.90
2017-08-23T22:33:36.389Z,99.90
2017-08-23T22:36:04.797Z,99.90
2017-08-23T22:38:33.556Z,99.90
2017-08-23T22:41:02.450Z,99.90
2017-08-23T22:43:31.420Z,99.90
2017-08-23T22:45:59.707Z,99.90
2017-08-23T22:48:28.239Z,99.90
2017-08-23T22:50:57.336Z,99.90
2017-08-23T22:53:26.649Z,99.90
2017-08-23T22:55:55.270Z,99.90
2017-08-23T22:58:24.265Z,99.90
2017-08-23T23:00:52.567Z,99.90
2017-08-23T23:03:22.489Z,99.90
2017-08-23T23:05:51.569Z,99.90
2017-08-23T23:08:20.200Z,99.90
2017-08-23T23:10:50.530Z,99.90
2017-08-23T23:13:18.855Z,99.90
2017-08-23T23:15:47.148Z,99.90
2017-08-23T23:18:15.572Z,99.90
2017-08-23T23:20:44.243Z,99.90
2017-08-23T23:23:13.056Z,99.90
2017-08-23T23:25:41.339Z,99.90
2017-08-23T23:28:10.134Z,99.90
2017-08-23T23:30:38.654Z,99.90
2017-08-23T23:33:07.694Z,99.90
2017-08-23T23:35:36.105Z,99.90
2017-08-23T23:38:04.872Z,99.90
2017-08-23T23:40:33.204Z,99.90
2017-08-23T23:43:03.394Z,99.90
2017-08-23T23:45:31.978Z,99.90
2017-08-23T23:48:01.860Z,99.90
2017-08-23T23:50:30.142Z,99.90
2017-08-23T23:52:58.649Z,99.90
2017-08-23T23:55:26.966Z,99.90
2017-08-23T23:57:56.371Z,99.90
